createdAt,value
2019-03-23T00:02:14.415Z,61.50
2019-03-23T00:04:42.905Z,62.27
2019-03-23T00:07:11.431Z,61.27
2019-03-23T00:09:40.021Z,62.77
2019-03-23T00:12:08.463Z,62.33
2019-03-23T00:14:36.936Z,63.13
2019-03-23T00:17:05.457Z,61.10
2019-03-23T00:19:33.928Z,60.33
2019-03-23T00:22:02.536Z,59.70
2019-03-23T00:24:31.073Z,57.57
2019-03-23T00:26:59.558Z,58.70
2019-03-23T00:29:28.063Z,57.17
2019-03-23T00:31:56.796Z,56.45
2019-03-23T00:34:25.266Z,55.10
2019-03-23T00:36:54.877Z,55.83
2019-03-23T00:39:23.363Z,53.13
2019-03-23T00:41:51.880Z,54.57
2019-03-23T00:44:20.354Z,55.03
2019-03-23T00:46:48.881Z,53.57
2019-03-23T00:49:17.384Z,53.47
2019-03-23T00:51:46.925Z,55.23
2019-03-23T00:54:15.446Z,54.03
2019-03-23T00:56:43.919Z,52.53
2019-03-23T00:59:12.448Z,54.20
2019-03-23T01:01:40.967Z,50.97
2019-03-23T01:04:09.439Z,55.03
2019-03-23T01:06:37.927Z,53.90
2019-03-23T01:09:07.807Z,54.33
2019-03-23T01:11:36.335Z,54.50
2019-03-23T01:14:05.044Z,54.80
2019-03-23T01:16:33.598Z,56.10
2019-03-23T01:19:02.981Z,53.57
2019-03-23T01:21:31.506Z,53.53
2019-03-23T01:23:59.970Z,56.87
2019-03-23T01:26:28.493Z,56.90
2019-03-23T01:28:56.969Z,55.43
2019-03-23T01:31:25.480Z,55.50
2019-03-23T01:33:53.961Z,55.53
2019-03-23T01:36:22.540Z,55.40
2019-03-23T01:38:51.004Z,57.20
2019-03-23T01:41:19.607Z,57.67
2019-03-23T01:43:48.075Z,59.10
2019-03-23T01:46:16.563Z,59.10
2019-03-23T01:48:45.028Z,60.23
2019-03-23T01:51:13.547Z,57.23
2019-03-23T01:53:42.019Z,57.17
2019-03-23T01:56:10.493Z,56.87
2019-03-23T01:58:39.183Z,58.10
2019-03-23T02:01:07.725Z,59.83
2019-03-23T02:03:36.213Z,60.03
2019-03-23T02:06:04.677Z,61.57
2019-03-23T02:08:33.161Z,60.07
2019-03-23T02:11:01.714Z,61.77
2019-03-23T02:13:30.443Z,60.00
2019-03-23T02:15:58.938Z,58.60
2019-03-23T02:18:27.417Z,57.30
2019-03-23T02:20:57.054Z,59.63
2019-03-23T02:23:25.576Z,57.17
2019-03-23T02:25:54.057Z,59.60
2019-03-23T02:28:22.570Z,60.63
2019-03-23T02:30:51.040Z,59.93
2019-03-23T02:33:19.565Z,59.60
2019-03-23T02:35:48.031Z,60.07
2019-03-23T02:38:16.541Z,57.50
2019-03-23T02:40:45.014Z,57.13
2019-03-23T02:43:13.523Z,56.50
2019-03-23T02:45:41.999Z,60.07
2019-03-23T02:48:10.557Z,56.27
2019-03-23T02:50:39.010Z,57.33
2019-03-23T02:53:07.525Z,57.13
2019-03-23T02:55:36.076Z,54.87
2019-03-23T02:58:10.394Z,56.37
2019-03-23T03:00:38.873Z,57.17
2019-03-23T03:03:07.353Z,58.93
2019-03-23T03:05:35.838Z,58.70
2019-03-23T03:08:04.533Z,56.87
2019-03-23T03:10:39.137Z,58.20
2019-03-23T03:13:07.747Z,56.37
2019-03-23T03:15:36.225Z,58.83
2019-03-23T03:18:06.158Z,59.77
2019-03-23T03:20:34.647Z,59.60
2019-03-23T03:23:03.167Z,61.07
2019-03-23T03:25:31.640Z,59.90
2019-03-23T03:28:00.203Z,59.30
2019-03-23T03:30:28.817Z,59.77
2019-03-23T03:32:57.359Z,60.13
2019-03-23T03:35:25.819Z,60.57
2019-03-23T03:37:57.007Z,56.97
2019-03-23T03:40:25.520Z,54.83
2019-03-23T03:42:54.076Z,53.27
2019-03-23T03:45:25.017Z,50.33
2019-03-23T03:47:53.511Z,51.37
2019-03-23T03:50:22.133Z,50.57
2019-03-23T03:52:50.637Z,69.40
2019-03-23T03:55:19.199Z,63.87
2019-03-23T03:57:47.656Z,58.93
2019-03-23T04:00:16.428Z,65.23
2019-03-23T04:02:45.015Z,61.60
2019-03-23T04:05:13.635Z,83.00
2019-03-23T04:07:44.049Z,88.50
2019-03-23T04:10:12.776Z,88.07
2019-03-23T04:12:41.418Z,71.83
2019-03-23T04:15:10.996Z,75.00
2019-03-23T04:17:39.458Z,67.87
2019-03-23T04:20:09.316Z,62.50
2019-03-23T04:22:37.783Z,59.83
2019-03-23T04:25:08.340Z,58.57
2019-03-23T04:27:37.773Z,55.73
2019-03-23T04:30:08.472Z,59.23
2019-03-23T04:32:36.947Z,59.83
2019-03-23T04:35:06.905Z,60.73
2019-03-23T04:37:35.387Z,60.17
2019-03-23T04:40:05.076Z,67.53
2019-03-23T04:42:33.577Z,59.33
2019-03-23T04:45:02.139Z,58.40
2019-03-23T04:47:30.604Z,70.43
2019-03-23T04:49:59.114Z,67.20
2019-03-23T04:52:27.672Z,79.57
2019-03-23T04:54:56.157Z,70.73
2019-03-23T04:57:24.637Z,65.47
2019-03-23T04:59:53.122Z,86.83
2019-03-23T05:02:22.057Z,74.57
2019-03-23T05:04:51.485Z,72.53
2019-03-23T05:07:19.964Z,90.23
2019-03-23T05:09:48.445Z,79.30
2019-03-23T05:12:16.920Z,73.30
2019-03-23T05:14:48.476Z,80.67
2019-03-23T05:17:17.923Z,90.17
2019-03-23T05:19:46.414Z,79.00
2019-03-23T05:22:14.975Z,80.50
2019-03-23T05:24:43.753Z,79.93
2019-03-23T05:27:12.428Z,79.87
2019-03-23T05:29:40.953Z,80.23
2019-03-23T05:32:09.419Z,83.57
2019-03-23T05:34:37.897Z,82.90
2019-03-23T05:37:06.368Z,82.20
2019-03-23T05:39:34.862Z,82.87
2019-03-23T05:42:03.333Z,86.80
2019-03-23T05:44:31.821Z,87.50
2019-03-23T05:47:00.362Z,86.83
2019-03-23T05:49:28.881Z,86.73
2019-03-23T05:51:57.372Z,87.23
2019-03-23T05:54:25.855Z,86.97
2019-03-23T05:56:54.325Z,86.97
2019-03-23T05:59:22.858Z,87.23
2019-03-23T06:01:51.355Z,87.90
2019-03-23T06:04:19.824Z,90.10
2019-03-23T06:06:48.303Z,90.60
2019-03-23T06:09:16.861Z,88.23
2019-03-23T06:11:45.353Z,89.53
2019-03-23T06:14:13.820Z,90.87
2019-03-23T06:16:43.234Z,88.63
2019-03-23T06:19:11.774Z,88.67
2019-03-23T06:21:42.646Z,88.47
2019-03-23T06:24:10.541Z,86.27
2019-03-23T06:26:39.063Z,87.40
2019-03-23T06:29:07.550Z,89.43
2019-03-23T06:31:36.173Z,90.70
2019-03-23T06:34:04.715Z,84.77
2019-03-23T06:36:33.206Z,88.40
2019-03-23T06:39:05.793Z,84.03
2019-03-23T06:41:31.930Z,83.90
2019-03-23T06:44:03.402Z,82.43
2019-03-23T06:46:31.923Z,82.00
2019-03-23T06:49:00.394Z,80.33
2019-03-23T06:51:28.896Z,80.50
2019-03-23T06:53:57.394Z,80.27
2019-03-23T06:56:25.911Z,78.83
2019-03-23T06:58:54.459Z,75.60
2019-03-23T07:01:22.950Z,71.45
2019-03-23T07:03:51.426Z,68.03
2019-03-23T07:06:19.942Z,67.07
2019-03-23T07:08:48.489Z,61.57
2019-03-23T07:11:18.531Z,60.20
2019-03-23T07:13:47.073Z,57.90
2019-03-23T07:16:15.552Z,56.70
2019-03-23T07:18:44.036Z,55.07
2019-03-23T07:21:12.512Z,54.77
2019-03-23T07:23:41.083Z,52.23
2019-03-23T07:26:09.711Z,52.23
2019-03-23T07:28:38.196Z,50.80
2019-03-23T07:31:06.717Z,52.90
2019-03-23T07:33:35.184Z,50.20
2019-03-23T07:36:03.740Z,50.13
2019-03-23T07:38:32.210Z,48.20
2019-03-23T07:41:00.700Z,46.60
2019-03-23T07:43:29.479Z,49.07
2019-03-23T07:45:58.039Z,48.10
2019-03-23T07:48:28.467Z,49.07
2019-03-23T07:50:56.760Z,47.40
2019-03-23T07:53:25.242Z,47.60
2019-03-23T07:55:53.721Z,46.23
2019-03-23T07:58:22.229Z,46.37
2019-03-23T08:00:50.696Z,46.63
2019-03-23T08:03:19.175Z,46.63
2019-03-23T08:05:47.675Z,45.73
2019-03-23T08:08:16.152Z,48.43
2019-03-23T08:10:44.613Z,46.20
2019-03-23T08:13:13.141Z,43.47
2019-03-23T08:15:41.583Z,45.90
2019-03-23T08:18:10.129Z,44.97
2019-03-23T08:20:38.602Z,47.43
2019-03-23T08:23:12.878Z,49.37
2019-03-23T08:25:41.359Z,46.00
2019-03-23T08:28:09.874Z,44.40
2019-03-23T08:30:38.346Z,42.13
2019-03-23T08:33:06.844Z,44.03
2019-03-23T08:35:35.305Z,46.47
2019-03-23T08:38:03.796Z,42.40
2019-03-23T08:42:40.083Z,40.97
2019-03-23T08:45:10.287Z,41.47
2019-03-23T08:47:39.814Z,42.37
2019-03-23T08:50:09.570Z,44.13
2019-03-23T08:52:39.010Z,42.37
2019-03-23T08:55:09.834Z,42.50
2019-03-23T08:57:41.341Z,39.20
2019-03-23T09:00:11.055Z,40.47
2019-03-23T09:02:40.735Z,39.53
2019-03-23T09:05:10.623Z,43.20
2019-03-23T09:07:42.099Z,40.40
2019-03-23T09:10:11.757Z,37.10
2019-03-23T09:12:41.198Z,38.37
2019-03-23T09:15:11.166Z,39.63
2019-03-23T09:17:40.750Z,39.50
2019-03-23T09:20:14.527Z,41.70
2019-03-23T09:22:44.073Z,41.33
2019-03-23T09:25:13.518Z,40.47
2019-03-23T09:27:42.921Z,40.23
2019-03-23T09:30:13.348Z,40.17
2019-03-23T09:32:42.925Z,39.67
2019-03-23T09:35:12.747Z,41.37
2019-03-23T09:37:42.246Z,40.37
2019-03-23T09:40:11.864Z,41.10
2019-03-23T09:42:41.293Z,37.53
2019-03-23T09:45:10.949Z,37.50
2019-03-23T09:47:40.470Z,35.80
2019-03-23T09:50:11.027Z,37.57
2019-03-23T09:52:40.462Z,39.67
2019-03-23T09:55:10.517Z,38.27
2019-03-23T09:57:40.157Z,38.60
2019-03-23T10:00:11.721Z,39.13
2019-03-23T10:02:41.227Z,40.00
2019-03-23T10:05:10.778Z,38.57
2019-03-23T10:07:40.353Z,37.77
2019-03-23T10:10:20.995Z,35.40
2019-03-23T10:12:41.718Z,37.47
2019-03-23T10:15:11.312Z,35.33
2019-03-23T10:17:40.922Z,33.87
2019-03-23T10:20:10.468Z,33.53
2019-03-23T10:22:40.059Z,33.30
2019-03-23T10:25:10.800Z,30.57
2019-03-23T10:27:40.212Z,30.73
2019-03-23T10:30:11.132Z,29.87
2019-03-23T10:32:40.641Z,31.50
2019-03-23T10:35:11.848Z,30.90
2019-03-23T10:37:41.444Z,31.00
2019-03-23T10:40:11.975Z,36.33
2019-03-23T10:42:43.332Z,34.37
2019-03-23T10:45:12.909Z,35.07
2019-03-23T10:47:42.701Z,32.53
2019-03-23T10:50:12.394Z,30.80
2019-03-23T10:52:42.812Z,32.03
2019-03-23T10:55:14.270Z,32.00
2019-03-23T10:57:43.684Z,33.93
2019-03-23T11:00:16.251Z,32.97
2019-03-23T11:02:45.742Z,30.40
2019-03-23T11:05:15.267Z,33.37
2019-03-23T11:07:44.718Z,32.97
2019-03-23T11:10:14.584Z,33.83
2019-03-23T11:12:44.222Z,31.70
2019-03-23T11:15:14.035Z,31.97
2019-03-23T11:17:43.565Z,35.33
2019-03-23T11:20:14.045Z,36.60
2019-03-23T11:22:43.546Z,38.20
2019-03-23T11:25:13.326Z,35.70
2019-03-23T11:27:42.983Z,34.03
2019-03-23T11:30:14.039Z,32.27
2019-03-23T11:32:43.538Z,30.00
2019-03-23T11:35:13.489Z,33.53
2019-03-23T11:37:43.220Z,32.23
2019-03-23T11:40:13.162Z,36.23
2019-03-23T11:42:49.818Z,35.43
2019-03-23T11:45:15.094Z,33.50
2019-03-23T11:47:44.545Z,34.53
2019-03-23T11:50:15.068Z,32.20
2019-03-23T11:52:47.100Z,32.50
2019-03-23T11:55:16.787Z,32.67
2019-03-23T11:57:50.765Z,34.43
2019-03-23T12:00:20.306Z,33.13
2019-03-23T12:02:49.785Z,33.28
2019-03-23T12:05:19.332Z,32.63
2019-03-23T12:07:48.833Z,27.82
2019-03-23T12:10:18.300Z,23.57
2019-03-23T12:12:47.785Z,24.05
2019-03-23T12:15:17.783Z,24.47
2019-03-23T12:17:47.221Z,25.60
2019-03-23T12:20:16.740Z,26.43
2019-03-23T12:22:46.243Z,26.37
2019-03-23T12:25:15.669Z,23.32
2019-03-23T12:27:45.157Z,23.02
2019-03-23T12:30:16.778Z,25.27
2019-03-23T12:32:46.222Z,22.95
2019-03-23T12:35:15.683Z,20.62
2019-03-23T12:37:45.161Z,17.92
2019-03-23T12:40:16.554Z,19.02
2019-03-23T12:42:46.004Z,17.32
2019-03-23T12:45:15.797Z,17.35
2019-03-23T12:47:45.230Z,17.40
2019-03-23T12:50:15.455Z,18.93
2019-03-23T12:52:45.793Z,15.20
2019-03-23T12:55:15.228Z,15.98
2019-03-23T12:57:44.652Z,10.05
2019-03-23T13:00:17.520Z,13.87
2019-03-23T13:02:48.529Z,16.05
2019-03-23T13:05:17.973Z,16.17
2019-03-23T13:07:47.535Z,17.10
2019-03-23T13:10:17.016Z,16.48
2019-03-23T13:12:46.519Z,16.75
2019-03-23T13:15:17.744Z,17.70
2019-03-23T13:17:47.208Z,18.32
2019-03-23T13:20:17.145Z,18.75
2019-03-23T13:22:46.570Z,17.90
2019-03-23T13:25:16.126Z,17.75
2019-03-23T13:27:45.656Z,15.72
2019-03-23T13:30:17.231Z,16.83
2019-03-23T13:32:46.651Z,15.30
2019-03-23T13:35:16.083Z,16.57
2019-03-23T13:37:45.538Z,16.10
2019-03-23T13:40:16.088Z,18.07
2019-03-23T13:42:45.520Z,17.05
2019-03-23T13:45:15.289Z,18.37
2019-03-23T13:47:44.790Z,16.77
2019-03-23T13:50:16.088Z,16.17
2019-03-23T13:52:45.598Z,16.82
2019-03-23T13:55:26.252Z,15.53
2019-03-23T13:57:55.855Z,15.88
2019-03-23T14:00:25.302Z,14.55
2019-03-23T14:02:54.875Z,16.93
2019-03-23T14:05:24.261Z,17.27
2019-03-23T14:07:53.751Z,16.35
2019-03-23T14:10:23.281Z,16.13
2019-03-23T14:12:52.814Z,17.00
2019-03-23T14:15:22.235Z,17.40
2019-03-23T14:17:51.673Z,16.62
2019-03-23T14:20:21.316Z,16.67
2019-03-23T14:22:50.766Z,16.57
2019-03-23T14:25:20.207Z,18.67
2019-03-23T14:27:49.668Z,16.87
2019-03-23T14:30:19.149Z,17.27
2019-03-23T14:32:48.586Z,15.32
2019-03-23T14:35:18.068Z,14.55
2019-03-23T14:37:47.661Z,14.47
2019-03-23T14:40:17.088Z,14.67
2019-03-23T14:42:46.553Z,14.85
2019-03-23T14:45:15.974Z,15.58
2019-03-23T14:47:45.678Z,14.33
2019-03-23T14:50:15.102Z,13.77
2019-03-23T14:52:44.571Z,13.20
2019-03-23T14:55:14.074Z,14.55
2019-03-23T14:57:43.511Z,13.60
2019-03-23T15:00:14.077Z,13.18
2019-03-23T15:02:45.465Z,13.28
2019-03-23T15:05:14.904Z,13.95
2019-03-23T15:07:44.425Z,12.55
2019-03-23T15:10:14.193Z,11.40
2019-03-23T15:12:43.652Z,11.12
2019-03-23T15:15:13.144Z,11.88
2019-03-23T15:17:48.867Z,12.68
2019-03-23T15:20:13.740Z,12.18
2019-03-23T15:22:43.270Z,11.12
2019-03-23T15:25:12.864Z,11.22
2019-03-23T15:27:42.296Z,9.93
2019-03-23T15:30:12.062Z,10.60
2019-03-23T15:32:41.690Z,12.58
2019-03-23T15:35:11.189Z,11.15
2019-03-23T15:37:41.670Z,10.00
2019-03-23T15:40:11.587Z,9.50
2019-03-23T15:42:41.124Z,8.33
2019-03-23T15:45:11.068Z,8.75
2019-03-23T15:47:40.624Z,8.45
2019-03-23T15:50:10.235Z,9.13
2019-03-23T15:52:39.704Z,9.20
2019-03-23T15:55:09.559Z,9.68
2019-03-23T15:57:39.035Z,9.58
2019-03-23T16:00:12.631Z,10.80
2019-03-23T16:02:42.069Z,10.70
2019-03-23T16:05:11.826Z,10.60
2019-03-23T16:07:41.336Z,10.35
2019-03-23T16:10:11.398Z,9.80
2019-03-23T16:12:41.020Z,10.58
2019-03-23T16:15:12.175Z,12.65
2019-03-23T16:17:41.758Z,11.95
2019-03-23T16:20:12.127Z,13.77
2019-03-23T16:22:41.655Z,14.00
2019-03-23T16:25:12.971Z,14.23
2019-03-23T16:27:42.505Z,13.85
2019-03-23T16:30:28.258Z,15.27
2019-03-23T16:32:57.677Z,15.13
2019-03-23T16:35:27.171Z,15.50
2019-03-23T16:37:56.585Z,14.70
2019-03-23T16:40:26.028Z,15.17
2019-03-23T16:42:55.442Z,14.93
2019-03-23T16:45:25.025Z,15.97
2019-03-23T16:47:54.511Z,16.43
2019-03-23T16:50:23.996Z,17.83
2019-03-23T16:52:53.516Z,16.93
2019-03-23T16:55:23.017Z,16.47
2019-03-23T16:57:52.453Z,16.10
2019-03-23T17:00:24.978Z,15.73
2019-03-23T17:02:54.537Z,17.93
2019-03-23T17:05:23.968Z,19.83
2019-03-23T17:07:54.027Z,17.40
2019-03-23T17:10:23.470Z,14.57
2019-03-23T17:12:55.550Z,15.70
2019-03-23T17:15:24.151Z,16.33
2019-03-23T17:17:53.575Z,18.30
2019-03-23T17:20:23.251Z,20.93
2019-03-23T17:22:55.456Z,21.43
2019-03-23T17:25:24.920Z,23.07
2019-03-23T17:27:54.411Z,22.80
2019-03-23T17:30:23.845Z,20.27
2019-03-23T17:32:53.276Z,18.20
2019-03-23T17:35:22.751Z,22.77
2019-03-23T17:37:52.168Z,21.63
2019-03-23T17:40:21.674Z,22.20
2019-03-23T17:42:51.690Z,17.33
2019-03-23T17:45:21.153Z,19.50
2019-03-23T17:47:50.641Z,14.83
2019-03-23T17:50:20.180Z,17.70
2019-03-23T17:52:49.716Z,17.47
2019-03-23T17:55:19.242Z,23.07
2019-03-23T17:57:48.665Z,19.00
2019-03-23T18:00:18.709Z,21.93
2019-03-23T18:02:48.486Z,20.50
2019-03-23T18:05:18.211Z,23.77
2019-03-23T18:07:47.628Z,47.93
2019-03-23T18:10:17.140Z,143.47
2019-03-23T18:12:46.837Z,30.70
2019-03-23T18:15:21.855Z,31.57
2019-03-23T18:17:51.464Z,25.27
2019-03-23T18:20:24.903Z,25.17
2019-03-23T18:22:56.156Z,23.93
2019-03-23T18:25:25.625Z,22.93
2019-03-23T18:27:55.187Z,27.83
2019-03-23T18:30:43.656Z,28.20
2019-03-23T18:33:13.203Z,24.17
2019-03-23T18:35:43.090Z,23.33
2019-03-23T18:38:12.929Z,22.60
2019-03-23T18:40:48.389Z,23.90
2019-03-23T18:43:27.034Z,23.23
2019-03-23T18:46:01.717Z,26.20
2019-03-23T18:48:32.967Z,27.00
2019-03-23T18:51:02.586Z,24.53
2019-03-23T18:53:32.204Z,26.33
2019-03-23T18:56:01.966Z,35.40
2019-03-23T18:58:31.537Z,37.43
2019-03-23T19:01:01.158Z,43.93
2019-03-23T19:03:30.755Z,46.03
2019-03-23T19:06:00.386Z,45.33
2019-03-23T19:08:32.065Z,44.57
2019-03-23T19:11:01.539Z,41.10
2019-03-23T19:13:37.866Z,39.00
2019-03-23T19:16:02.098Z,37.97
2019-03-23T19:18:31.525Z,37.53
2019-03-23T19:21:00.957Z,33.57
2019-03-23T19:23:30.389Z,33.43
2019-03-23T19:25:59.818Z,40.37
2019-03-23T19:28:30.334Z,30.00
2019-03-23T19:30:59.856Z,31.53
2019-03-23T19:33:29.284Z,28.70
2019-03-23T19:35:58.755Z,30.17
2019-03-23T19:38:28.174Z,30.37
2019-03-23T19:40:57.600Z,31.63
2019-03-23T19:43:27.028Z,38.13
2019-03-23T19:46:02.860Z,37.00
2019-03-23T19:48:32.270Z,38.17
2019-03-23T19:51:03.745Z,41.40
2019-03-23T19:53:33.000Z,40.50
2019-03-23T19:56:02.445Z,41.03
2019-03-23T19:58:31.889Z,40.33
2019-03-23T20:01:01.330Z,42.93
2019-03-23T20:03:30.890Z,45.80
2019-03-23T20:06:00.370Z,43.23
2019-03-23T20:08:29.791Z,53.83
2019-03-23T20:10:59.352Z,39.77
2019-03-23T20:13:28.836Z,44.43
2019-03-23T20:15:59.085Z,47.50
2019-03-23T20:18:28.507Z,47.87
2019-03-23T20:20:57.986Z,42.93
2019-03-23T20:23:27.494Z,46.97
2019-03-23T20:25:56.995Z,43.40
2019-03-23T20:28:26.483Z,40.10
2019-03-23T20:30:57.079Z,42.03
2019-03-23T20:33:26.580Z,40.60
2019-03-23T20:35:56.014Z,38.57
2019-03-23T20:38:25.491Z,29.10
2019-03-23T20:40:54.969Z,37.23
2019-03-23T20:43:24.434Z,37.00
2019-03-23T20:45:53.997Z,36.20
2019-03-23T20:48:23.538Z,36.03
2019-03-23T20:50:53.237Z,38.20
2019-03-23T20:53:22.979Z,34.10
2019-03-23T20:55:52.394Z,31.33
2019-03-23T20:58:21.834Z,39.20
2019-03-23T21:00:51.247Z,35.73
2019-03-23T21:03:20.716Z,33.70
2019-03-23T21:05:50.162Z,36.37
2019-03-23T21:08:19.689Z,38.20
2019-03-23T21:10:49.111Z,39.87
2019-03-23T21:13:18.587Z,39.07
2019-03-23T21:15:48.007Z,32.07
2019-03-23T21:18:17.506Z,40.57
2019-03-23T21:20:47.015Z,33.17
2019-03-23T21:23:16.473Z,39.30
2019-03-23T21:25:45.933Z,40.10
2019-03-23T21:28:15.370Z,38.70
2019-03-23T21:30:44.800Z,39.23
2019-03-23T21:33:14.262Z,35.87
2019-03-23T21:35:43.683Z,40.07
2019-03-23T21:38:13.294Z,40.80
2019-03-23T21:40:42.711Z,34.93
2019-03-23T21:43:12.166Z,40.40
2019-03-23T21:45:41.587Z,40.50
2019-03-23T21:48:11.809Z,40.10
2019-03-23T21:50:47.411Z,39.70
2019-03-23T21:53:12.460Z,41.50
2019-03-23T21:55:41.895Z,41.00
2019-03-23T21:58:11.824Z,39.60
2019-03-23T22:00:41.242Z,40.87
2019-03-23T22:03:10.697Z,39.90
2019-03-23T22:05:42.792Z,40.67
2019-03-23T22:08:12.400Z,38.57
2019-03-23T22:10:41.907Z,39.37
2019-03-23T22:13:12.370Z,36.67
2019-03-23T22:15:41.775Z,38.43
2019-03-23T22:18:11.216Z,36.47
2019-03-23T22:20:41.808Z,37.07
2019-03-23T22:23:11.271Z,34.60
2019-03-23T22:25:40.705Z,36.40
2019-03-23T22:28:10.136Z,33.43
2019-03-23T22:30:39.553Z,31.40
2019-03-23T22:33:08.986Z,29.70
2019-03-23T22:35:38.449Z,26.07
2019-03-23T22:38:07.864Z,24.63
2019-03-23T22:40:37.546Z,26.27
2019-03-23T22:43:07.044Z,25.23
2019-03-23T22:45:36.459Z,25.13
2019-03-23T22:48:05.956Z,29.47
2019-03-23T22:50:35.422Z,33.53
2019-03-23T22:53:05.098Z,32.70
2019-03-23T22:55:34.523Z,34.57
2019-03-23T22:58:03.949Z,34.53
2019-03-23T23:00:43.395Z,33.00
2019-03-23T23:03:14.254Z,34.33
2019-03-23T23:05:44.238Z,33.87
2019-03-23T23:08:13.828Z,32.53
2019-03-23T23:10:43.453Z,31.50
2019-03-23T23:13:12.921Z,32.60
2019-03-23T23:15:42.389Z,31.90
2019-03-23T23:18:11.892Z,31.27
2019-03-23T23:20:41.345Z,30.30
2019-03-23T23:23:10.944Z,30.37
2019-03-23T23:25:42.144Z,28.47
2019-03-23T23:28:12.539Z,29.33
2019-03-23T23:30:42.107Z,27.75
2019-03-23T23:33:11.763Z,29.03
2019-03-23T23:35:41.439Z,29.50
2019-03-23T23:38:12.008Z,28.37
2019-03-23T23:40:41.530Z,30.43
2019-03-23T23:43:11.100Z,30.77
2019-03-23T23:45:40.677Z,29.53
2019-03-23T23:48:11.388Z,30.00
2019-03-23T23:50:42.387Z,30.07
2019-03-23T23:53:14.774Z,31.97
2019-03-23T23:55:45.523Z,31.50
2019-03-23T23:58:15.173Z,31.27
